Terminal Aerodrome Forecast
Issued by NWS Charleston, WV

Home | Current Version | Previous Version | Text Only | Print | Product List | Glossary On
Versions: 1 2 3 4 5 6 7 8 9 10 11 12 13 14 15 16 17 18 19 20 21 22
000
FTUS41 KRLX 280234 AAA
TAFPKB
TAF AMD
KPKB 280234Z 2803/2824 VRB02KT P6SM BKN250
     FM280600 VRB02KT 5SM BR BKN015
     FM281100 VRB02KT 5SM SHRA BKN009
     FM281400 VRB03KT P6SM SHRA VCTS OVC011CB
     FM281700 20005KT P6SM SHRA VCTS OVC050CB=

USA.gov is the U.S. government's official web portal to all federal, state and local government web resources and services.